createdAt,value
2019-02-11T00:00:08.427Z,94.84
2019-02-11T00:01:08.176Z,94.93
2019-02-11T00:02:08.418Z,94.56
2019-02-11T00:03:08.147Z,94.18
2019-02-11T00:04:08.389Z,94.65
2019-02-11T00:05:08.414Z,94.84
2019-02-11T00:06:08.118Z,94.56
2019-02-11T00:07:08.118Z,94.08
2019-02-11T00:08:08.342Z,94.56
2019-02-11T00:09:08.092Z,94.46
2019-02-11T00:10:08.331Z,94.27
2019-02-11T00:11:08.085Z,94.74
2019-02-11T00:12:08.309Z,95.51
2019-02-11T00:13:13.281Z,94.74
2019-02-11T00:14:08.309Z,94.84
2019-02-11T00:15:08.047Z,94.7
2019-02-11T00:16:08.292Z,95.51
2019-02-11T00:17:08.277Z,94.98
2019-02-11T00:18:08.262Z,95.74
2019-02-11T00:19:07.998Z,95.46
2019-02-11T00:20:07.996Z,95.27
2019-02-11T00:21:07.985Z,94.89
2019-02-11T00:22:08.226Z,93.75
2019-02-11T00:23:07.965Z,93.27
2019-02-11T00:24:07.968Z,94.03
2019-02-11T00:25:08.194Z,93.46
2019-02-11T00:26:07.949Z,93.27
2019-02-11T00:27:08.187Z,93.56
2019-02-11T00:28:08.167Z,94.03
2019-02-11T00:29:08.168Z,93.27
2019-02-11T00:30:08.150Z,92.71
2019-02-11T00:31:08.141Z,92.42
2019-02-11T00:32:07.886Z,92.52
2019-02-11T00:33:07.874Z,92.71
2019-02-11T00:34:08.114Z,92.23
2019-02-11T00:35:08.117Z,91.94
2019-02-11T00:36:07.841Z,92.52
2019-02-11T00:37:08.082Z,92.04
2019-02-11T00:38:08.080Z,91.75
2019-02-11T00:39:08.068Z,92.61
2019-02-11T00:40:08.066Z,91.66
2019-02-11T00:41:07.800Z,91.38
2019-02-11T00:42:07.796Z,91.38
2019-02-11T00:43:07.803Z,91
2019-02-11T00:44:08.043Z,91.38
2019-02-11T00:45:07.761Z,91.09
2019-02-11T00:46:07.765Z,91.56
2019-02-11T00:47:07.990Z,91.28
2019-02-11T00:48:09.649Z,92.42
2019-02-11T00:49:07.725Z,91.85
2019-02-11T00:50:07.741Z,91.19
2019-02-11T00:51:07.959Z,91.56
2019-02-11T00:52:07.964Z,92.61
2019-02-11T00:53:07.940Z,92.52
2019-02-11T00:54:07.925Z,91.85
2019-02-11T00:55:07.923Z,90.71
2019-02-11T00:56:07.925Z,91.47
2019-02-11T00:57:07.901Z,91.38
2019-02-11T00:58:07.910Z,91.75
2019-02-11T00:59:07.880Z,92.14
2019-02-11T01:00:07.624Z,92.23
2019-02-11T01:01:07.628Z,92.52
2019-02-11T01:02:07.612Z,92.42
2019-02-11T01:03:07.596Z,92.61
2019-02-11T01:04:07.844Z,92.8
2019-02-11T01:05:07.581Z,91.75
2019-02-11T01:06:07.816Z,92.61
2019-02-11T01:07:07.839Z,92.42
2019-02-11T01:08:07.813Z,92.99
2019-02-11T01:09:07.846Z,93.08
2019-02-11T01:10:07.785Z,92.18
2019-02-11T01:11:07.779Z,92.52
2019-02-11T01:12:07.770Z,92.57
2019-02-11T01:13:07.777Z,91.94
2019-02-11T01:14:07.510Z,91.85
2019-02-11T01:15:07.738Z,91.47
2019-02-11T01:16:07.509Z,92.52
2019-02-11T01:17:07.738Z,92.33
2019-02-11T01:18:07.713Z,91.38
2019-02-11T01:19:07.443Z,90.9
2019-02-11T01:20:07.704Z,90.62
2019-02-11T01:21:07.681Z,90.62
2019-02-11T01:22:07.429Z,90.81
2019-02-11T01:23:07.423Z,90.62
2019-02-11T01:24:07.662Z,90.81
2019-02-11T01:25:07.394Z,90.9
2019-02-11T01:26:07.384Z,90.81
2019-02-11T01:27:07.378Z,90.52
2019-02-11T01:28:07.621Z,90.62
2019-02-11T01:29:07.357Z,90.9
2019-02-11T01:30:07.596Z,90.52
2019-02-11T01:31:07.337Z,90.33
2019-02-11T01:32:07.577Z,91.19
2019-02-11T01:33:07.563Z,91.38
2019-02-11T01:34:07.554Z,91.56
2019-02-11T01:35:07.556Z,92.71
2019-02-11T01:36:07.296Z,92.23
2019-02-11T01:37:07.527Z,92.61
2019-02-11T01:38:07.525Z,92.99
2019-02-11T01:39:07.511Z,92.23
2019-02-11T01:40:07.256Z,92.52
2019-02-11T01:41:07.493Z,92.71
2019-02-11T01:42:07.231Z,91.94
2019-02-11T01:43:07.474Z,92.52
2019-02-11T01:44:07.476Z,92.33
2019-02-11T01:45:07.215Z,92.42
2019-02-11T01:46:07.444Z,92.52
2019-02-11T01:47:07.445Z,91.94
2019-02-11T01:48:07.426Z,92.23
2019-02-11T01:49:07.416Z,92.61
2019-02-11T01:50:07.414Z,92.8
2019-02-11T01:51:07.395Z,92.14
2019-02-11T01:52:07.397Z,92.42
2019-02-11T01:53:07.389Z,92.71
2019-02-11T01:54:07.386Z,92.71
2019-02-11T01:55:07.368Z,93.27
2019-02-11T01:56:07.424Z,93.08
2019-02-11T01:57:07.098Z,92.42
2019-02-11T01:58:07.336Z,92.52
2019-02-11T01:59:07.330Z,92.33
2019-02-11T02:00:07.320Z,93.08
2019-02-11T02:01:07.307Z,93.18
2019-02-11T02:02:07.301Z,92.71
2019-02-11T02:03:07.306Z,92.33
2019-02-11T02:04:07.283Z,92.52
2019-02-11T02:05:07.295Z,91.56
2019-02-11T02:06:07.273Z,91.38
2019-02-11T02:07:07.259Z,91.56
2019-02-11T02:08:06.999Z,91.85
2019-02-11T02:09:07.236Z,91.09
2019-02-11T02:10:07.227Z,91
2019-02-11T02:11:07.220Z,90.33
2019-02-11T02:12:07.208Z,91.09
2019-02-11T02:13:07.198Z,91.38
2019-02-11T02:14:07.187Z,90.33
2019-02-11T02:15:07.207Z,90.33
2019-02-11T02:16:07.193Z,90.33
2019-02-11T02:17:06.922Z,90.52
2019-02-11T02:18:07.162Z,90.52
2019-02-11T02:19:07.144Z,91
2019-02-11T02:20:07.147Z,90.14
2019-02-11T02:21:06.876Z,90.43
2019-02-11T02:22:07.119Z,90.43
2019-02-11T02:23:07.107Z,90.81
2019-02-11T02:24:07.103Z,90.43
2019-02-11T02:25:07.100Z,89.67
2019-02-11T02:26:06.844Z,90.9
2019-02-11T02:27:06.844Z,90.81
2019-02-11T02:28:07.072Z,90.43
2019-02-11T02:29:07.077Z,90.52
2019-02-11T02:30:06.839Z,89.95
2019-02-11T02:31:07.054Z,89.76
2019-02-11T02:32:07.073Z,89.76
2019-02-11T02:33:07.048Z,90.24
2019-02-11T02:34:06.762Z,90.43
2019-02-11T02:35:06.757Z,90.43
2019-02-11T02:36:06.750Z,89.67
2019-02-11T02:37:06.738Z,89.58
2019-02-11T02:38:06.972Z,89.58
2019-02-11T02:39:06.973Z,89.67
2019-02-11T02:40:06.963Z,89.48
2019-02-11T02:41:06.699Z,90.43
2019-02-11T02:42:06.945Z,89.58
2019-02-11T02:43:06.682Z,89.76
2019-02-11T02:44:06.666Z,89.67
2019-02-11T02:45:06.674Z,89.76
2019-02-11T02:46:06.658Z,89.76
2019-02-11T02:47:06.645Z,89.2
2019-02-11T02:48:06.890Z,89.48
2019-02-11T02:49:06.875Z,89.1
2019-02-11T02:50:06.875Z,89.67
2019-02-11T02:51:06.609Z,88.91
2019-02-11T02:52:06.859Z,88.81
2019-02-11T02:53:06.937Z,88.91
2019-02-11T02:54:06.580Z,88.81
2019-02-11T02:55:06.580Z,88.91
2019-02-11T02:56:06.814Z,89.29
2019-02-11T02:57:06.564Z,88.81
2019-02-11T02:58:06.810Z,88.91
2019-02-11T02:59:06.791Z,89.29
2019-02-11T03:00:06.781Z,89.2
2019-02-11T03:01:06.767Z,88.91
2019-02-11T03:02:06.763Z,89.29
2019-02-11T03:03:06.745Z,88.72
2019-02-11T03:04:06.738Z,89.58
2019-02-11T03:05:06.728Z,89.48
2019-02-11T03:06:06.487Z,89.48
2019-02-11T03:07:06.711Z,89.76
2019-02-11T03:08:06.708Z,89.67
2019-02-11T03:09:06.698Z,90.05
2019-02-11T03:10:06.692Z,90.81
2019-02-11T03:11:06.429Z,90.71
2019-02-11T03:12:06.669Z,90.81
2019-02-11T03:13:06.666Z,91.19
2019-02-11T03:14:08.624Z,92.61
2019-02-11T03:15:06.660Z,92.61
2019-02-11T03:16:06.645Z,92.61
2019-02-11T03:17:06.627Z,93.94
2019-02-11T03:18:06.623Z,94.7
2019-02-11T03:19:06.372Z,94.89
2019-02-11T03:20:06.595Z,95.27
2019-02-11T03:21:06.593Z,96.12
2019-02-11T03:22:06.584Z,96.5
2019-02-11T03:23:06.320Z,97.92
2019-02-11T03:24:06.315Z,98.87
2019-02-11T03:25:06.558Z,99.99
2019-02-11T03:26:06.301Z,99.99
2019-02-11T03:27:06.545Z,99.99
2019-02-11T03:28:06.529Z,99.99
2019-02-11T03:29:06.514Z,99.99
2019-02-11T03:30:06.525Z,99.99
2019-02-11T03:31:06.503Z,99.99
2019-02-11T03:32:06.501Z,99.99
2019-02-11T03:33:06.245Z,99.99
2019-02-11T03:34:06.482Z,99.99
2019-02-11T03:35:06.213Z,99.99
2019-02-11T03:36:06.201Z,99.99
2019-02-11T03:37:06.456Z,99.99
2019-02-11T03:38:06.177Z,99.99
2019-02-11T03:39:06.163Z,99.99
2019-02-11T03:40:06.398Z,99.99
2019-02-11T03:41:06.390Z,99.99
2019-02-11T03:42:06.389Z,99.99
2019-02-11T03:43:06.379Z,99.99
2019-02-11T03:44:14.762Z,99.99
2019-02-11T03:45:06.110Z,99.99
2019-02-11T03:46:06.349Z,99.99
2019-02-11T03:47:06.346Z,99.99
2019-02-11T03:48:06.337Z,99.99
2019-02-11T03:49:06.074Z,99.99
2019-02-11T03:50:07.920Z,99.99
2019-02-11T03:51:06.295Z,99.99
2019-02-11T03:52:06.038Z,99.99
2019-02-11T03:53:06.284Z,99.99
2019-02-11T03:54:06.022Z,99.99
2019-02-11T03:55:06.270Z,99.99
2019-02-11T03:56:06.278Z,99.99
2019-02-11T03:57:06.247Z,99.99
2019-02-11T03:58:06.228Z,99.99
2019-02-11T03:59:06.223Z,99.99
2019-02-11T04:00:06.220Z,99.99
2019-02-11T04:01:06.202Z,99.99
2019-02-11T04:02:06.201Z,99.99
2019-02-11T04:03:06.190Z,99.99
2019-02-11T04:04:06.190Z,99.99
2019-02-11T04:05:05.912Z,99.99
2019-02-11T04:06:06.164Z,99.99
2019-02-11T04:07:06.139Z,99.99
2019-02-11T04:08:05.887Z,99.99
2019-02-11T04:09:06.125Z,99.99
2019-02-11T04:10:05.862Z,99.99
2019-02-11T04:11:05.859Z,99.99
2019-02-11T04:12:05.846Z,99.99
2019-02-11T04:13:05.829Z,99.99
2019-02-11T04:14:05.821Z,99.99
2019-02-11T04:15:06.064Z,99.99
2019-02-11T04:16:06.052Z,99.99
2019-02-11T04:17:06.054Z,99.99
2019-02-11T04:18:06.045Z,99.99
2019-02-11T04:19:05.778Z,99.99
2019-02-11T04:20:06.041Z,99.99
2019-02-11T04:21:06.003Z,99.99
2019-02-11T04:22:05.986Z,99.99
2019-02-11T04:23:05.733Z,99.99
2019-02-11T04:24:05.724Z,99.99
2019-02-11T04:25:05.969Z,99.99
2019-02-11T04:26:05.956Z,99.99
2019-02-11T04:27:05.962Z,99.99
2019-02-11T04:28:05.682Z,99.99
2019-02-11T04:29:05.703Z,99.99
2019-02-11T04:30:05.667Z,99.99
2019-02-11T04:31:05.903Z,99.99
2019-02-11T04:32:05.911Z,99.99
2019-02-11T04:33:05.881Z,99.99
2019-02-11T04:34:05.872Z,99.99
2019-02-11T04:35:05.870Z,99.99
2019-02-11T04:36:05.868Z,99.99
2019-02-11T04:37:05.876Z,99.99
2019-02-11T04:38:05.830Z,99.99
2019-02-11T04:39:05.821Z,99.99
2019-02-11T04:40:05.845Z,99.99
2019-02-11T04:41:05.544Z,99.99
2019-02-11T04:42:05.793Z,99.99
2019-02-11T04:43:05.799Z,99.99
2019-02-11T04:44:05.766Z,99.99
2019-02-11T04:45:05.764Z,99.99
2019-02-11T04:46:05.752Z,99.99
2019-02-11T04:47:05.741Z,99.99
2019-02-11T04:48:05.495Z,99.99
2019-02-11T04:49:05.739Z,99.99
2019-02-11T04:50:05.729Z,99.99
2019-02-11T04:51:05.453Z,99.99
2019-02-11T04:52:05.689Z,99.99
2019-02-11T04:53:05.431Z,99.99
2019-02-11T04:54:05.433Z,99.99
2019-02-11T04:55:05.666Z,99.99
2019-02-11T04:56:05.667Z,99.99
2019-02-11T04:57:05.646Z,99.99
2019-02-11T04:58:05.389Z,99.99
2019-02-11T04:59:05.616Z,99.99
2019-02-11T05:00:05.626Z,99.99
2019-02-11T05:01:05.602Z,99.99
2019-02-11T05:02:05.369Z,99.99
2019-02-11T05:03:05.330Z,99.99
2019-02-11T05:04:05.567Z,99.99
2019-02-11T05:05:05.577Z,99.99
2019-02-11T05:06:05.300Z,99.99
2019-02-11T05:07:05.553Z,99.99
2019-02-11T05:08:05.536Z,99.99
2019-02-11T05:09:05.528Z,99.99
2019-02-11T05:10:05.268Z,99.99
2019-02-11T05:11:05.516Z,99.99
2019-02-11T05:12:05.492Z,99.99
2019-02-11T05:13:05.480Z,99.99
2019-02-11T05:14:05.466Z,99.99
2019-02-11T05:15:05.217Z,99.99
2019-02-11T05:16:05.201Z,99.99
2019-02-11T05:17:05.449Z,99.99
2019-02-11T05:18:05.518Z,99.99
2019-02-11T05:19:05.435Z,99.99
2019-02-11T05:20:05.436Z,99.99
2019-02-11T05:21:05.415Z,99.99
2019-02-11T05:22:05.406Z,99.99
2019-02-11T05:23:05.388Z,99.99
2019-02-11T05:24:05.378Z,99.99
2019-02-11T05:25:05.375Z,99.99
2019-02-11T05:26:05.107Z,99.99
2019-02-11T05:27:05.358Z,99.99
2019-02-11T05:28:05.339Z,99.99
2019-02-11T05:29:05.077Z,99.99
2019-02-11T05:30:05.068Z,99.99
2019-02-11T05:31:05.302Z,99.99
2019-02-11T05:32:05.299Z,99.99
2019-02-11T05:33:05.337Z,99.99
2019-02-11T05:34:05.275Z,99.99
2019-02-11T05:35:05.290Z,99.99
2019-02-11T05:36:05.270Z,99.99
2019-02-11T05:37:05.257Z,99.99
2019-02-11T05:38:05.232Z,99.99
2019-02-11T05:39:05.220Z,99.99
2019-02-11T05:40:04.960Z,99.99
2019-02-11T05:41:04.947Z,99.99
2019-02-11T05:42:05.196Z,99.99
2019-02-11T05:43:05.183Z,99.99
2019-02-11T05:44:05.864Z,99.99
2019-02-11T05:45:05.182Z,99.99
2019-02-11T05:46:04.937Z,99.99
2019-02-11T05:47:04.904Z,99.63
2019-02-11T05:48:04.881Z,99.25
2019-02-11T05:49:05.112Z,98.73
2019-02-11T05:50:05.109Z,98.44
2019-02-11T05:51:04.859Z,98.82
2019-02-11T05:52:04.838Z,99.39
2019-02-11T05:53:05.105Z,98.73
2019-02-11T05:54:04.824Z,97.21
2019-02-11T05:55:04.812Z,95.22
2019-02-11T05:56:05.049Z,94.84
2019-02-11T05:57:05.046Z,95.41
2019-02-11T05:58:05.051Z,95.03
2019-02-11T05:59:04.772Z,94.18
2019-02-11T06:00:05.111Z,94.37
2019-02-11T06:01:05.018Z,93.23
2019-02-11T06:02:04.989Z,93.13
2019-02-11T06:03:04.989Z,93.23
2019-02-11T06:04:04.970Z,92.38
2019-02-11T06:05:04.720Z,92.18
2019-02-11T06:06:04.996Z,92.47
2019-02-11T06:07:04.938Z,91.52
2019-02-11T06:08:04.926Z,91.61
2019-02-11T06:09:04.671Z,90.57
2019-02-11T06:10:04.663Z,91.24
2019-02-11T06:11:04.908Z,91.52
2019-02-11T06:12:04.892Z,91.52
2019-02-11T06:13:04.628Z,90.86
2019-02-11T06:14:04.867Z,90.48
2019-02-11T06:15:07.045Z,89.72
2019-02-11T06:16:04.847Z,89.62
2019-02-11T06:17:04.585Z,89.81
2019-02-11T06:18:04.583Z,90.48
2019-02-11T06:19:04.821Z,90
2019-02-11T06:20:04.805Z,89.72
2019-02-11T06:21:04.804Z,89.72
2019-02-11T06:22:04.534Z,89.34
2019-02-11T06:23:04.540Z,89.62
2019-02-11T06:24:04.766Z,89.91
2019-02-11T06:25:04.845Z,89.53
2019-02-11T06:26:04.747Z,89.43
2019-02-11T06:27:04.733Z,89.43
2019-02-11T06:28:04.484Z,88.87
2019-02-11T06:29:04.478Z,88.68
2019-02-11T06:30:04.722Z,88.29
2019-02-11T06:31:04.712Z,87.92
2019-02-11T06:32:04.699Z,88.01
2019-02-11T06:33:04.690Z,88.87
2019-02-11T06:34:04.675Z,88.29
2019-02-11T06:35:04.665Z,88.68
2019-02-11T06:36:14.241Z,88.58
2019-02-11T06:37:04.657Z,88.96
2019-02-11T06:38:04.394Z,88.48
2019-02-11T06:39:04.632Z,87.25
2019-02-11T06:40:04.622Z,88.01
2019-02-11T06:41:04.609Z,87.73
2019-02-11T06:42:04.599Z,86.11
2019-02-11T06:43:04.347Z,87.35
2019-02-11T06:44:04.592Z,87.35
2019-02-11T06:45:12.434Z,86.97
2019-02-11T06:46:04.573Z,86.49
2019-02-11T06:47:04.543Z,86.78
2019-02-11T06:48:04.557Z,86.4
2019-02-11T06:49:04.282Z,87.25
2019-02-11T06:50:04.531Z,87.54
2019-02-11T06:51:04.264Z,87.68
2019-02-11T06:52:04.510Z,88.2
2019-02-11T06:53:04.489Z,88.01
2019-02-11T06:54:04.238Z,88.48
2019-02-11T06:55:04.219Z,88.96
2019-02-11T06:56:04.252Z,89.34
2019-02-11T06:57:04.464Z,89.72
2019-02-11T06:58:04.452Z,89.25
2019-02-11T06:59:04.440Z,89.06
2019-02-11T07:00:04.173Z,89.25
2019-02-11T07:01:04.418Z,89.25
2019-02-11T07:02:04.412Z,89.53
2019-02-11T07:03:04.411Z,89.62
2019-02-11T07:04:04.369Z,89.72
2019-02-11T07:05:04.381Z,89.81
2019-02-11T07:06:04.113Z,90.38
2019-02-11T07:07:04.103Z,90.19
2019-02-11T07:08:04.348Z,90.29
2019-02-11T07:09:04.085Z,91.05
2019-02-11T07:10:04.073Z,91.52
2019-02-11T07:11:04.337Z,91.99
2019-02-11T07:12:04.321Z,92.47
2019-02-11T07:13:04.055Z,93.61
2019-02-11T07:14:04.290Z,93.8
2019-02-11T07:15:04.035Z,93.89
2019-02-11T07:16:04.296Z,93.99
2019-02-11T07:17:04.262Z,94.93
2019-02-11T07:18:04.252Z,94.65
2019-02-11T07:19:04.250Z,94.65
2019-02-11T07:20:04.237Z,94.84
2019-02-11T07:21:04.213Z,95.41
2019-02-11T07:22:04.219Z,95.31
2019-02-11T07:23:04.210Z,95.5
2019-02-11T07:24:04.200Z,95.6
2019-02-11T07:25:04.181Z,95.41
2019-02-11T07:26:04.174Z,95.5
2019-02-11T07:27:04.165Z,95.6
2019-02-11T07:28:04.148Z,95.79
2019-02-11T07:29:04.137Z,96.08
2019-02-11T07:30:04.141Z,95.69
2019-02-11T07:31:04.120Z,95.31
2019-02-11T07:32:04.124Z,95.31
2019-02-11T07:33:04.103Z,94.93
2019-02-11T07:34:03.846Z,94.65
2019-02-11T07:35:03.845Z,94.27
2019-02-11T07:36:04.069Z,93.8
2019-02-11T07:37:03.827Z,93.89
2019-02-11T07:38:03.805Z,94.08
2019-02-11T07:39:04.049Z,94.65
2019-02-11T07:40:04.053Z,94.46
2019-02-11T07:41:04.048Z,94.27
2019-02-11T07:42:04.707Z,94.18
2019-02-11T07:43:04.013Z,93.8
2019-02-11T07:44:03.991Z,92.85
2019-02-11T07:45:03.737Z,93.13
2019-02-11T07:46:03.730Z,92.57
2019-02-11T07:47:03.745Z,93.23
2019-02-11T07:48:03.724Z,91.71
2019-02-11T07:49:03.955Z,90.95
2019-02-11T07:50:03.948Z,90.86
2019-02-11T07:51:03.934Z,90.29
2019-02-11T07:52:03.672Z,89.81
2019-02-11T07:53:03.909Z,89.72
2019-02-11T07:54:03.660Z,89.62
2019-02-11T07:55:03.656Z,89.81
2019-02-11T07:56:03.635Z,88.87
2019-02-11T07:57:03.870Z,88.96
2019-02-11T07:58:03.861Z,88.58
2019-02-11T07:59:03.859Z,89.43
2019-02-11T08:00:03.612Z,88.87
2019-02-11T08:01:03.839Z,89.62
2019-02-11T08:02:03.840Z,89.62
2019-02-11T08:03:03.830Z,89.76
2019-02-11T08:04:03.805Z,88.77
2019-02-11T08:05:03.848Z,87.54
2019-02-11T08:06:03.804Z,86.87
2019-02-11T08:07:03.780Z,86.91
2019-02-11T08:08:03.771Z,88.34
2019-02-11T08:09:03.759Z,88.15
2019-02-11T08:10:03.753Z,87.3
2019-02-11T08:11:03.501Z,86.35
2019-02-11T08:12:03.738Z,86.07
2019-02-11T08:13:03.753Z,85.59
2019-02-11T08:14:03.711Z,86.07
2019-02-11T08:15:03.710Z,85.49
2019-02-11T08:16:03.453Z,85.49
2019-02-11T08:17:03.698Z,85.21
2019-02-11T08:18:03.456Z,86.25
2019-02-11T08:19:03.669Z,85.97
2019-02-11T08:20:03.695Z,85.02
2019-02-11T08:21:03.653Z,85.02
2019-02-11T08:22:03.647Z,85.02
2019-02-11T08:23:10.754Z,85.21
2019-02-11T08:24:03.623Z,85.02
2019-02-11T08:25:03.385Z,84.74
2019-02-11T08:26:03.615Z,84.64
2019-02-11T08:27:03.604Z,84.83
2019-02-11T08:28:03.603Z,85.21
2019-02-11T08:29:03.588Z,84.83
2019-02-11T08:30:03.328Z,85.21
2019-02-11T08:31:03.559Z,84.36
2019-02-11T08:32:03.555Z,84.45
2019-02-11T08:33:03.299Z,84.17
2019-02-11T08:34:03.537Z,83.88
2019-02-11T08:35:03.527Z,83.5
2019-02-11T08:36:03.523Z,83.22
2019-02-11T08:37:03.509Z,83.59
2019-02-11T08:38:03.277Z,83.5
2019-02-11T08:39:04.647Z,82.55
2019-02-11T08:40:03.241Z,83.03
2019-02-11T08:41:03.476Z,82.46
2019-02-11T08:42:03.229Z,83.03
2019-02-11T08:43:03.205Z,82.74
2019-02-11T08:44:03.456Z,82.27
2019-02-11T08:45:03.451Z,82.36
2019-02-11T08:46:03.186Z,82.17
2019-02-11T08:47:03.419Z,82.17
2019-02-11T08:48:03.414Z,81.98
2019-02-11T08:49:03.471Z,81.41
2019-02-11T08:50:03.401Z,81.98
2019-02-11T08:51:03.397Z,81.13
2019-02-11T08:52:03.395Z,80.56
2019-02-11T08:53:03.366Z,79.9
2019-02-11T08:54:03.361Z,80.08
2019-02-11T08:55:03.364Z,81.04
2019-02-11T08:56:03.448Z,80.94
2019-02-11T08:57:03.080Z,80.94
2019-02-11T08:58:03.335Z,79.42
2019-02-11T08:59:03.316Z,79.52
2019-02-11T09:00:03.059Z,79.61
2019-02-11T09:01:03.047Z,79.9
2019-02-11T09:02:03.048Z,79.9
2019-02-11T09:03:03.031Z,79.99
2019-02-11T09:04:03.278Z,79.8
2019-02-11T09:05:03.269Z,79.52
2019-02-11T09:06:03.021Z,79.27
2019-02-11T09:07:03.241Z,79.14
2019-02-11T09:08:03.443Z,79.23
2019-02-11T09:09:03.236Z,79.33
2019-02-11T09:10:03.218Z,78.89
2019-02-11T09:11:03.211Z,78.38
2019-02-11T09:12:03.213Z,78.56
2019-02-11T09:13:02.948Z,78.75
2019-02-11T09:14:03.188Z,78.75
2019-02-11T09:15:02.931Z,78.61
2019-02-11T09:16:02.921Z,77.9
2019-02-11T09:17:09.960Z,77.43
2019-02-11T09:18:02.896Z,78.03
2019-02-11T09:19:03.141Z,77.94
2019-02-11T09:20:02.899Z,77.47
2019-02-11T09:21:03.123Z,78.09
2019-02-11T09:22:10.034Z,79.17
2019-02-11T09:23:03.106Z,77.84
2019-02-11T09:24:03.093Z,76.61
2019-02-11T09:25:02.839Z,76.32
2019-02-11T09:26:03.081Z,75.95
2019-02-11T09:27:03.081Z,76.42
2019-02-11T09:28:03.068Z,76.71
2019-02-11T09:29:03.390Z,76.71
2019-02-11T09:30:02.811Z,75.47
2019-02-11T09:31:03.048Z,76.04
2019-02-11T09:32:03.026Z,76.04
2019-02-11T09:33:02.782Z,74.81
2019-02-11T09:34:02.763Z,74.71
2019-02-11T09:35:02.768Z,73.67
2019-02-11T09:36:03.389Z,74.15
2019-02-11T09:37:03.003Z,73.96
2019-02-11T09:38:02.987Z,74.15
2019-02-11T09:39:02.727Z,73.57
2019-02-11T09:40:02.974Z,73
2019-02-11T09:41:02.705Z,73.76
2019-02-11T09:42:02.701Z,73.67
2019-02-11T09:43:02.961Z,73.19
2019-02-11T09:44:02.942Z,73.76
2019-02-11T09:45:02.917Z,74.15
2019-02-11T09:46:06.499Z,73.67
2019-02-11T09:47:02.902Z,73.67
2019-02-11T09:48:02.904Z,73.38
2019-02-11T09:49:02.895Z,73.57
2019-02-11T09:50:02.891Z,73.86
2019-02-11T09:51:02.883Z,73.38
2019-02-11T09:52:02.876Z,72.91
2019-02-11T09:53:02.849Z,71.86
2019-02-11T09:54:02.854Z,72.25
2019-02-11T09:55:02.856Z,71.58
2019-02-11T09:56:02.839Z,71.86
2019-02-11T09:57:02.823Z,71.58
2019-02-11T09:58:02.810Z,70.82
2019-02-11T09:59:02.825Z,71.39
2019-02-11T10:00:02.544Z,71.39
2019-02-11T10:01:02.790Z,71.39
2019-02-11T10:02:02.531Z,71.71
2019-02-11T10:03:02.786Z,72.28
2019-02-11T10:04:02.520Z,71.58
2019-02-11T10:05:02.522Z,71.14
2019-02-11T10:06:02.749Z,70.86
2019-02-11T10:07:02.753Z,71.04
2019-02-11T10:08:02.741Z,70.95
2019-02-11T10:09:02.764Z,71.62
2019-02-11T10:10:02.473Z,71.81
2019-02-11T10:11:02.470Z,71.43
2019-02-11T10:12:02.460Z,71.04
2019-02-11T10:13:02.447Z,71.04
2019-02-11T10:14:02.690Z,70.29
2019-02-11T10:15:02.440Z,70.57
2019-02-11T10:16:02.871Z,70.57
2019-02-11T10:17:02.419Z,71.14
2019-02-11T10:18:02.663Z,71.04
2019-02-11T10:19:02.652Z,71.23
2019-02-11T10:20:02.743Z,71.62
2019-02-11T10:21:02.388Z,71.62
2019-02-11T10:22:02.632Z,71.23
2019-02-11T10:23:02.634Z,71.23
2019-02-11T10:24:02.615Z,71.23
2019-02-11T10:25:02.659Z,71.71
2019-02-11T10:26:02.614Z,72.09
2019-02-11T10:27:02.597Z,72.09
2019-02-11T10:28:02.340Z,72.75
2019-02-11T10:29:02.611Z,72.66
2019-02-11T10:30:02.662Z,71.62
2019-02-11T10:31:02.582Z,70.95
2019-02-11T10:32:02.309Z,71.04
2019-02-11T10:33:02.547Z,71.14
2019-02-11T10:34:02.329Z,70.76
2019-02-11T10:35:02.394Z,70.86
2019-02-11T10:36:02.542Z,70.57
2019-02-11T10:37:02.287Z,70.29
2019-02-11T10:38:02.525Z,70.32
2019-02-11T10:39:02.278Z,70.04
2019-02-11T10:40:02.572Z,70.29
2019-02-11T10:41:02.499Z,71.52
2019-02-11T10:42:02.341Z,71.23
2019-02-11T10:43:02.485Z,71.33
2019-02-11T10:44:02.472Z,72.09
2019-02-11T10:45:02.328Z,72.38
2019-02-11T10:46:02.468Z,71.62
2019-02-11T10:47:02.208Z,72.19
2019-02-11T10:48:02.195Z,71.62
2019-02-11T10:49:02.443Z,71.43
2019-02-11T10:50:02.612Z,71.04
2019-02-11T10:51:02.172Z,71.71
2019-02-11T10:52:02.472Z,72.19
2019-02-11T10:53:02.477Z,72.38
2019-02-11T10:54:02.414Z,72.19
2019-02-11T10:55:02.424Z,71.81
2019-02-11T10:56:02.395Z,72
2019-02-11T10:57:02.389Z,71.23
2019-02-11T10:58:02.393Z,70.95
2019-02-11T10:59:02.173Z,71.71
2019-02-11T11:00:02.361Z,71.62
2019-02-11T11:01:02.346Z,71.33
2019-02-11T11:02:02.353Z,71.62
2019-02-11T11:03:02.352Z,72.85
2019-02-11T11:04:02.080Z,72.56
2019-02-11T11:05:02.337Z,72.85
2019-02-11T11:06:02.064Z,72.47
2019-02-11T11:07:02.073Z,72.09
2019-02-11T11:08:02.049Z,71.81
2019-02-11T11:09:02.296Z,71.52
2019-02-11T11:10:02.040Z,71.43
2019-02-11T11:11:02.047Z,71.9
2019-02-11T11:12:02.287Z,72.75
2019-02-11T11:13:02.279Z,72.85
2019-02-11T11:14:02.029Z,73.33
2019-02-11T11:15:02.259Z,73.14
2019-02-11T11:16:01.995Z,72.32
2019-02-11T11:17:01.995Z,71.46
2019-02-11T11:18:02.237Z,71.18
2019-02-11T11:19:02.022Z,70.99
2019-02-11T11:20:02.241Z,70.04
2019-02-11T11:21:02.231Z,69.46
2019-02-11T11:22:02.007Z,70.13
2019-02-11T11:23:02.228Z,71.18
2019-02-11T11:24:02.206Z,71.23
2019-02-11T11:25:02.180Z,71.43
2019-02-11T11:26:02.172Z,71.9
2019-02-11T11:27:02.168Z,71.62
2019-02-11T11:28:02.165Z,71.71
2019-02-11T11:29:02.215Z,72
2019-02-11T11:30:02.150Z,71.81
2019-02-11T11:31:02.144Z,72.28
2019-02-11T11:32:02.137Z,72.47
2019-02-11T11:33:02.125Z,72.47
2019-02-11T11:34:02.120Z,72.85
2019-02-11T11:35:01.872Z,72.56
2019-02-11T11:36:02.109Z,72.95
2019-02-11T11:37:02.097Z,72.19
2019-02-11T11:38:01.838Z,73.42
2019-02-11T11:39:02.083Z,73.33
2019-02-11T11:40:02.081Z,73.8
2019-02-11T11:41:02.077Z,74.66
2019-02-11T11:42:02.076Z,74.85
2019-02-11T11:43:01.816Z,75.23
2019-02-11T11:44:02.047Z,74.94
2019-02-11T11:45:02.041Z,74.37
2019-02-11T11:46:02.029Z,72.75
2019-02-11T11:47:02.026Z,72.75
2019-02-11T11:48:01.769Z,72.85
2019-02-11T11:49:01.767Z,72.66
2019-02-11T11:50:02.010Z,72.19
2019-02-11T11:51:01.997Z,71.81
2019-02-11T11:52:01.993Z,71.71
2019-02-11T11:53:01.980Z,71.23
2019-02-11T11:54:01.730Z,70.79
2019-02-11T11:55:01.757Z,71.94
2019-02-11T11:56:04.862Z,70.99
2019-02-11T11:57:02.073Z,70.99
2019-02-11T11:58:01.997Z,71.37
2019-02-11T11:59:01.951Z,70.86
2019-02-11T12:00:01.991Z,71.52
2019-02-11T12:01:01.959Z,71.23
2019-02-11T12:02:01.695Z,71.43
2019-02-11T12:03:06.638Z,71.43
2019-02-11T12:04:02.463Z,71.81
2019-02-11T12:05:01.673Z,71.23
2019-02-11T12:06:01.654Z,70.86
2019-02-11T12:07:01.907Z,71.81
2019-02-11T12:08:01.966Z,72.19
2019-02-11T12:09:02.160Z,72.47
2019-02-11T12:10:01.927Z,72.28
2019-02-11T12:11:01.885Z,72.47
2019-02-11T12:12:01.905Z,72.47
2019-02-11T12:13:20.325Z,72.47
2019-02-11T12:14:01.890Z,72.66
2019-02-11T12:15:01.989Z,72.75
2019-02-11T12:16:01.842Z,73.42
2019-02-11T12:17:05.274Z,73.52
2019-02-11T12:18:01.595Z,73.9
2019-02-11T12:19:01.809Z,74.56
2019-02-11T12:20:01.929Z,74.08
2019-02-11T12:21:01.832Z,74.47
2019-02-11T12:22:01.828Z,74.08
2019-02-11T12:23:01.901Z,75.04
2019-02-11T12:24:01.822Z,75.51
2019-02-11T12:25:01.842Z,74.75
2019-02-11T12:26:01.780Z,74.18
2019-02-11T12:27:01.781Z,74.27
2019-02-11T12:28:01.819Z,74.85
2019-02-11T12:29:01.502Z,75.13
2019-02-11T12:30:02.036Z,73.99
2019-02-11T12:31:01.755Z,73.61
2019-02-11T12:32:01.747Z,73.23
2019-02-11T12:33:01.769Z,73.04
2019-02-11T12:34:01.720Z,72.56
2019-02-11T12:35:01.705Z,73.23
2019-02-11T12:36:01.698Z,72.95
2019-02-11T12:37:01.467Z,73.04
2019-02-11T12:38:01.446Z,73.04
2019-02-11T12:39:01.683Z,73.14
2019-02-11T12:40:01.685Z,73.04
2019-02-11T12:41:01.650Z,73.14
2019-02-11T12:42:01.657Z,73.52
2019-02-11T12:43:01.688Z,73.99
2019-02-11T12:44:01.632Z,73.71
2019-02-11T12:45:01.621Z,73.52
2019-02-11T12:46:01.621Z,73.23
2019-02-11T12:47:15.773Z,73.52
2019-02-11T12:48:01.596Z,73.71
2019-02-11T12:49:04.243Z,72.38
2019-02-11T12:50:01.340Z,71.9
2019-02-11T12:51:01.601Z,71.52
2019-02-11T12:52:01.590Z,71.37
2019-02-11T12:53:01.589Z,71.08
2019-02-11T12:54:01.549Z,71.18